Victory Chimes — WAV4111 — position and weather

sailwx.info

Track history (hours):
 
Tides and Currents Weather Stations Pressure Air Temp Water Temp Dewpoint Dewpoint Depression Visibility Wind Speed Wind Dir Waves Ship Positions

Victory Chimes

Owner: VICTORY CHIMES INC, ROCKLAND, ME. More information available from US FCC via Universal Licensing System and Coast Guard Vessel Documentation Center.

Last reported at 2018-Jun-25 03:18 UTC. Time now 2018-Jun-25 04:24 UTC.
Position N 44°06' W 069°06'.

Length 38 m.

Type: Sailing vessel. MMSI: 367093020.

Date/timePositionNaut miles runAvg speedWind from/ knotsBaromVisibWave heightAir tempDewpointWater temp
2018-Jun-25 03:18N 44°06' W 069°06'0 0.0
2018-Jun-25 02:49N 44°06' W 069°06'0 0.0
2018-Jun-25 02:30N 44°06' W 069°06'19 1.5
2018-Jun-24 13:25N 44°09' W 068°39'2 0.1
2018-Jun-23 21:26N 44°09' W 068°37'1 0.9
2018-Jun-23 20:41N 44°09' W 068°38'1 4.0
2018-Jun-23 20:29N 44°09' W 068°39'2 4.0
2018-Jun-23 20:00N 44°08' W 068°42'2 4.2
2018-Jun-23 19:25N 44°08' W 068°45'2 3.7
2018-Jun-23 18:46N 44°11' W 068°47'1 3.9
2018-Jun-23 18:25N 44°11' W 068°48'8 3.9
2018-Jun-23 16:22N 44°08' W 068°58'2 4.2
2018-Jun-23 16:00N 44°07' W 069°00'2 4.2
2018-Jun-23 15:30N 44°06' W 069°03'2 3.5
2018-Jun-23 14:53N 44°06' W 069°06'  
2018-Jun-20 11:23N 44°07' W 069°05'0 0.0
2018-Jun-20 10:59N 44°07' W 069°05'0 0.0
2018-Jun-20 10:29N 44°07' W 069°05'0 0.0
2018-Jun-20 09:59N 44°07' W 069°05'0 0.0
2018-Jun-20 09:29N 44°07' W 069°05'0 0.0
2018-Jun-20 08:59N 44°07' W 069°05'0 0.0
2018-Jun-20 08:29N 44°07' W 069°05'0 0.0
2018-Jun-20 07:50N 44°07' W 069°05'0 0.0
2018-Jun-20 06:29N 44°07' W 069°05'0 0.0
2018-Jun-20 05:59N 44°07' W 069°05'0 0.0
2018-Jun-20 05:30N 44°07' W 069°05'0 0.0
2018-Jun-20 04:59N 44°07' W 069°05'0 0.0
2018-Jun-20 04:29N 44°07' W 069°05'0 0.0
2018-Jun-20 03:59N 44°07' W 069°05'0 0.0
2018-Jun-20 03:29N 44°07' W 069°05'0 0.0
2018-Jun-20 01:41N 44°07' W 069°05'0 0.1
2018-Jun-20 01:30N 44°07' W 069°05'0 0.0
2018-Jun-20 00:59N 44°07' W 069°05'0 0.0
2018-Jun-20 00:29N 44°07' W 069°05'1 0.1
2018-Jun-19 18:39N 44°06' W 069°04'1 5.0
2018-Jun-19 18:28N 44°06' W 069°03'8 0.5
2018-Jun-19 04:13N 44°09' W 068°53'0 0.0
2018-Jun-18 22:24N 44°09' W 068°53'0 0.0
2018-Jun-18 21:00N 44°09' W 068°53'0 0.0
2018-Jun-18 20:13N 44°09' W 068°53'2 0.0
2018-Jun-16 16:30N 44°09' W 068°56'3 5.7
2018-Jun-16 15:58N 44°08' W 068°60'  
Track history (hours):
 
Tides and Currents Weather Stations Pressure Air Temp Water Temp Dewpoint Dewpoint Depression Visibility Wind Speed Wind Dir Waves Ship Positions

Victory Chimes

Owner: VICTORY CHIMES INC, ROCKLAND, ME. More information available from US FCC via Universal Licensing System and Coast Guard Vessel Documentation Center.

Last reported at 2018-Jun-25 03:18 UTC. Time now 2018-Jun-25 04:24 UTC.
Position N 44°06' W 069°06'.

Length 38 m.

Type: Sailing vessel. MMSI: 367093020.

Date/timePositionNaut miles runAvg speedWind from/ knotsBaromVisibWave heightAir tempDewpointWater temp
2018-Jun-25 03:18N 44°06' W 069°06'0 0.0
2018-Jun-25 02:49N 44°06' W 069°06'0 0.0
2018-Jun-25 02:30N 44°06' W 069°06'19 1.5
2018-Jun-24 13:25N 44°09' W 068°39'2 0.1
2018-Jun-23 21:26N 44°09' W 068°37'1 0.9
2018-Jun-23 20:41N 44°09' W 068°38'1 4.0
2018-Jun-23 20:29N 44°09' W 068°39'2 4.0
2018-Jun-23 20:00N 44°08' W 068°42'2 4.2
2018-Jun-23 19:25N 44°08' W 068°45'2 3.7
2018-Jun-23 18:46N 44°11' W 068°47'1 3.9
2018-Jun-23 18:25N 44°11' W 068°48'8 3.9
2018-Jun-23 16:22N 44°08' W 068°58'2 4.2
2018-Jun-23 16:00N 44°07' W 069°00'2 4.2
2018-Jun-23 15:30N 44°06' W 069°03'2 3.5
2018-Jun-23 14:53N 44°06' W 069°06'  
2018-Jun-20 11:23N 44°07' W 069°05'0 0.0
2018-Jun-20 10:59N 44°07' W 069°05'0 0.0
2018-Jun-20 10:29N 44°07' W 069°05'0 0.0
2018-Jun-20 09:59N 44°07' W 069°05'0 0.0
2018-Jun-20 09:29N 44°07' W 069°05'0 0.0
2018-Jun-20 08:59N 44°07' W 069°05'0 0.0
2018-Jun-20 08:29N 44°07' W 069°05'0 0.0
2018-Jun-20 07:50N 44°07' W 069°05'0 0.0
2018-Jun-20 06:29N 44°07' W 069°05'0 0.0
2018-Jun-20 05:59N 44°07' W 069°05'0 0.0
2018-Jun-20 05:30N 44°07' W 069°05'0 0.0
2018-Jun-20 04:59N 44°07' W 069°05'0 0.0
2018-Jun-20 04:29N 44°07' W 069°05'0 0.0
2018-Jun-20 03:59N 44°07' W 069°05'0 0.0
2018-Jun-20 03:29N 44°07' W 069°05'0 0.0
2018-Jun-20 01:41N 44°07' W 069°05'0 0.1
2018-Jun-20 01:30N 44°07' W 069°05'0 0.0
2018-Jun-20 00:59N 44°07' W 069°05'0 0.0
2018-Jun-20 00:29N 44°07' W 069°05'1 0.1
2018-Jun-19 18:39N 44°06' W 069°04'1 5.0
2018-Jun-19 18:28N 44°06' W 069°03'8 0.5
2018-Jun-19 04:13N 44°09' W 068°53'0 0.0
2018-Jun-18 22:24N 44°09' W 068°53'0 0.0
2018-Jun-18 21:00N 44°09' W 068°53'0 0.0
2018-Jun-18 20:13N 44°09' W 068°53'2 0.0
2018-Jun-16 16:30N 44°09' W 068°56'3 5.7
2018-Jun-16 15:58N 44°08' W 068°60'  

Dump ship's entire track history